Time;durP1;ratioP1;P1;durP2;ratioP2;P2;SDS_P1;SDS_P2;PMS_P1;PMS_P2;Temp;Humidity;BMP_temperature;BMP_pressure;BME280_temperature;BME280_humidity;BME280_pressure;Samples;Min_cycle;Max_cycle;Signal;HPM_P1;HPM_P2
2022/09/23 00:00:46;;;;;;;;;;;;;;;8.97;79.22;101313.52;1707371;84;25858;-60
2022/09/23 00:03:20;;;;;;;;;;;;;;;8.94;79.04;101312.39;1706901;84;25789;-60
2022/09/23 00:05:50;;;;;;;;;;;;;;;8.95;79.07;101316.80;1706990;84;27523;-60
2022/09/23 00:08:16;;;;;;;;;;;;;;;8.98;79.25;101309.88;1706949;84;26301;-60
2022/09/23 00:10:43;;;;;;;;;;;;;;;9.01;79.15;101301.58;1706986;84;25798;-60
2022/09/23 00:13:09;;;;;;;;;;;;;;;9.06;79.39;101305.27;1706128;84;25870;-60
2022/09/23 00:15:39;;;;;;;;;;;;;;;9.15;79.43;101303.74;1705980;84;25748;-60
2022/09/23 00:18:06;;;;;;;;;;;;;;;9.15;79.09;101297.87;1706033;84;27107;-61
2022/09/23 00:20:35;;;;;;;;;;;;;;;9.08;78.76;101304.67;1706720;84;25806;-60
2022/09/23 00:23:02;;;;;;;;;;;;;;;9.04;78.96;101301.36;1706763;84;25796;-59
2022/09/23 00:25:28;;;;;;;;;;;;;;;9.02;79.28;101297.92;1707617;84;25821;-61
2022/09/23 00:27:55;;;;;;;;;;;;;;;9.03;79.08;101298.80;1707108;84;25774;-60
2022/09/23 00:30:22;;;;;;;;;;;;;;;8.99;79.40;101298.17;1720394;82;27635;-61
2022/09/23 00:32:51;;;;;;;;;;;;;;;8.96;79.76;101292.18;1706705;84;25824;-60
2022/09/23 00:35:18;;;;;;;;;;;;;;;8.92;79.38;101299.11;1707249;84;25743;-60
2022/09/23 00:37:44;;;;;;;;;;;;;;;8.96;79.66;101293.02;1707270;84;26241;-60
2022/09/23 00:40:12;;;;;;;;;;;;;;;8.96;79.55;101297.05;1707611;83;25680;-60
2022/09/23 00:42:46;;;;;;;;;;;;;;;8.99;79.71;101297.30;1706682;83;27640;-60
2022/09/23 00:45:13;;;;;;;;;;;;;;;9.01;79.53;101292.69;1707272;84;25945;-60
2022/09/23 00:47:47;;;;;;;;;;;;;;;9.02;79.36;101295.25;1707241;84;25735;-59
2022/09/23 00:50:39;;;;;;;;;;;;;;;9.04;79.41;101296.50;1707311;84;25967;-60
2022/09/23 00:53:08;;;;;;;;;;;;;;;9.11;79.44;101304.45;1706901;84;25796;-61
2022/09/23 00:55:41;;;;;;;;;;;;;;;9.15;79.62;101304.58;1707411;84;27521;-61
2022/09/23 00:58:11;;;;;;;;;;;;;;;9.15;79.26;101301.06;1707118;84;25799;-61
2022/09/23 01:00:38;;;;;;;;;;;;;;;9.18;79.47;101301.69;1707359;84;25791;-58
2022/09/23 01:03:06;;;;;;;;;;;;;;;9.16;79.27;101305.45;1707142;84;25885;-61
2022/09/23 01:05:33;;;;;;;;;;;;;;;9.16;79.25;101306.30;1707482;84;25728;-61
2022/09/23 01:08:01;;;;;;;;;;;;;;;9.22;79.44;101302.31;1707342;84;28489;-61
2022/09/23 01:10:30;;;;;;;;;;;;;;;9.22;79.38;101303.66;1706869;84;25716;-60
2022/09/23 01:13:00;;;;;;;;;;;;;;;9.14;79.16;101298.88;1688045;82;25836;-59
2022/09/23 01:15:36;;;;;;;;;;;;;;;9.13;79.37;101305.67;1670854;85;25824;-59
2022/09/23 01:18:26;;;;;;;;;;;;;;;9.03;79.59;101295.63;1679009;85;25728;-60
2022/09/23 01:21:08;;;;;;;;;;;;;;;8.99;79.76;101299.98;1696597;84;27488;-60
2022/09/23 01:23:50;;;;;;;;;;;;;;;8.98;79.95;101303.63;1707219;84;25723;-60
2022/09/23 01:26:39;;;;;;;;;;;;;;;8.95;79.96;101304.72;1706340;84;25884;-60
2022/09/23 01:29:32;;;;;;;;;;;;;;;8.89;81.06;101305.18;1707447;82;26296;-60
2022/09/23 01:32:08;;;;;;;;;;;;;;;8.86;80.68;101306.27;1682938;84;25780;-59
2022/09/23 01:34:41;;;;;;;;;;;;;;;8.82;81.30;101307.95;1686744;85;28190;-60
2022/09/23 01:37:17;;;;;;;;;;;;;;;8.82;81.38;101309.29;1686342;85;25747;-59
2022/09/23 01:39:50;;;;;;;;;;;;;;;8.80;81.11;101309.88;1723072;82;26380;-59
2022/09/23 01:42:25;;;;;;;;;;;;;;;8.84;81.45;101312.22;1683405;85;25812;-60
2022/09/23 01:44:59;;;;;;;;;;;;;;;8.82;81.33;101306.60;1641454;86;25795;-60
2022/09/23 01:47:32;;;;;;;;;;;;;;;8.81;81.72;101311.09;1687220;85;27499;-60
2022/09/23 01:52:58;;;;;;;;;;;;;;;8.69;82.36;101314.19;1684264;84;25547;-60
2022/09/23 01:55:30;;;;;;;;;;;;;;;8.64;82.84;101312.33;1697855;84;25889;-60
2022/09/23 01:58:03;;;;;;;;;;;;;;;8.70;82.96;101313.69;1698115;84;26530;-60
2022/09/23 02:00:33;;;;;;;;;;;;;;;8.75;82.20;101315.58;1705554;83;28238;-60
2022/09/23 02:03:07;;;;;;;;;;;;;;;8.83;82.19;101313.69;1715472;83;26852;-61
2022/09/23 02:05:46;;;;;;;;;;;;;;;8.90;82.16;101320.31;1706883;84;25716;-61
2022/09/23 02:08:16;;;;;;;;;;;;;;;9.00;82.21;101319.14;1707836;84;26567;-60
2022/09/23 02:10:52;;;;;;;;;;;;;;;9.10;81.97;101327.40;1711725;83;25485;-60
2022/09/23 02:13:40;;;;;;;;;;;;;;;9.18;81.70;101320.98;1715508;83;27608;-60
2022/09/23 02:16:11;;;;;;;;;;;;;;;9.23;81.47;101325.00;1715354;83;25668;-60
2022/09/23 02:18:46;;;;;;;;;;;;;;;9.26;81.19;101315.89;1714461;83;26195;-59
2022/09/23 02:21:14;;;;;;;;;;;;;;;9.24;81.06;101323.19;1715594;83;25825;-60
2022/09/23 02:23:49;;;;;;;;;;;;;;;9.22;80.80;101322.44;1715464;83;25589;-61
2022/09/23 02:26:29;;;;;;;;;;;;;;;9.17;80.68;101321.94;1715954;83;27548;-60
2022/09/23 02:29:10;;;;;;;;;;;;;;;9.18;80.92;101323.16;1715277;82;25715;-62
2022/09/23 02:31:43;;;;;;;;;;;;;;;9.18;80.74;101328.53;1738184;82;25734;-60
2022/09/23 02:34:17;;;;;;;;;;;;;;;9.17;80.77;101328.66;1718917;82;26116;-60
2022/09/23 02:36:48;;;;;;;;;;;;;;;9.20;80.86;101329.28;1712659;83;25694;-59
2022/09/23 02:39:16;;;;;;;;;;;;;;;9.23;81.02;101331.72;1729586;82;27618;-60
2022/09/23 02:42:06;;;;;;;;;;;;;;;9.28;80.89;101330.03;1741461;82;25671;-61
2022/09/23 02:44:33;;;;;;;;;;;;;;;9.28;80.62;101332.72;1741437;82;25693;-59
2022/09/23 02:47:00;;;;;;;;;;;;;;;9.35;80.76;101337.16;1716315;82;25806;-60
2022/09/23 02:49:29;;;;;;;;;;;;;;;9.38;80.57;101331.06;1714059;82;25727;-61
2022/09/23 02:51:58;;;;;;;;;;;;;;;9.41;80.46;101327.31;1712671;83;28268;-60
2022/09/23 02:54:27;;;;;;;;;;;;;;;9.47;80.49;101331.34;1712533;83;27278;-60
2022/09/23 02:56:54;;;;;;;;;;;;;;;9.52;80.40;101330.53;1712522;83;25682;-60
2022/09/23 02:59:22;;;;;;;;;;;;;;;9.52;80.20;101331.38;1712299;83;25793;-61
2022/09/23 03:02:16;;;;;;;;;;;;;;;9.56;80.10;101327.97;1712997;83;25453;-60
2022/09/23 03:05:05;;;;;;;;;;;;;;;9.50;79.93;101331.97;1713184;83;27654;-61
2022/09/23 03:07:35;;;;;;;;;;;;;;;9.40;79.98;101329.63;1711991;83;25788;-61
2022/09/23 03:10:26;;;;;;;;;;;;;;;9.32;80.21;101330.69;1709220;83;25818;-61
2022/09/23 03:13:05;;;;;;;;;;;;;;;9.28;80.32;101333.22;1712075;83;25890;-61
2022/09/23 03:15:45;;;;;;;;;;;;;;;9.23;80.72;101335.74;1711266;84;25882;-60
2022/09/23 03:18:36;;;;;;;;;;;;;;;9.19;80.45;101328.03;1681271;83;28242;-60
2022/09/23 03:21:12;;;;;;;;;;;;;;;9.18;80.65;101332.55;1711325;83;25846;-60
2022/09/23 03:23:40;;;;;;;;;;;;;;;9.22;81.39;101333.19;1711277;83;25641;-60
2022/09/23 03:26:16;;;;;;;;;;;;;;;9.19;81.05;101336.95;1711594;83;25866;-60
2022/09/23 03:28:44;;;;;;;;;;;;;;;9.20;80.88;101333.77;1711800;83;25783;-60
2022/09/23 03:31:12;;;;;;;;;;;;;;;9.20;81.35;101336.45;1726795;83;27492;-59
2022/09/23 03:33:48;;;;;;;;;;;;;;;9.20;81.44;101343.17;1728375;83;25793;-60
2022/09/23 03:39:09;;;;;;;;;;;;;;;9.24;81.24;101340.64;1707813;83;26148;-60
2022/09/23 03:41:42;;;;;;;;;;;;;;;9.25;81.21;101336.99;1709558;83;25715;-60
2022/09/23 03:44:09;;;;;;;;;;;;;;;9.26;81.59;101336.02;1707090;83;27486;-60
2022/09/23 03:46:37;;;;;;;;;;;;;;;9.20;81.69;101329.28;1707248;83;25701;-61
2022/09/23 03:49:26;;;;;;;;;;;;;;;9.18;82.08;101328.53;1685259;84;25690;-60
2022/09/23 03:51:54;;;;;;;;;;;;;;;9.18;81.80;101327.69;1676617;85;26582;-60
2022/09/23 03:54:21;;;;;;;;;;;;;;;9.20;81.70;101326.59;1676826;85;25853;-60
2022/09/23 03:56:47;;;;;;;;;;;;;;;9.27;81.78;101331.03;1676424;85;28204;-60
2022/09/23 03:59:15;;;;;;;;;;;;;;;9.35;82.04;101329.09;1676518;85;25757;-60
2022/09/23 04:01:42;;;;;;;;;;;;;;;9.42;81.86;101330.84;1676524;85;25794;-61
2022/09/23 04:04:09;;;;;;;;;;;;;;;9.49;81.84;101330.28;1676377;85;25769;-61
2022/09/23 04:06:35;;;;;;;;;;;;;;;9.59;81.79;101329.09;1676612;85;25715;-61
2022/09/23 04:09:02;;;;;;;;;;;;;;;9.66;81.82;101330.33;1676481;85;27482;-60
2022/09/23 04:11:28;;;;;;;;;;;;;;;9.73;81.67;101328.05;1675787;85;27226;-60
2022/09/23 04:13:55;;;;;;;;;;;;;;;9.78;81.38;101327.19;1676685;85;25789;-60
2022/09/23 04:16:22;;;;;;;;;;;;;;;9.75;81.04;101338.66;1731588;83;25833;-60
2022/09/23 04:18:49;;;;;;;;;;;;;;;9.75;80.81;101331.47;1731274;83;25736;-60
2022/09/23 04:21:15;;;;;;;;;;;;;;;9.67;81.02;101332.05;1731581;82;27466;-60
2022/09/23 04:23:42;;;;;;;;;;;;;;;9.63;80.94;101331.92;1734379;82;25803;-60
2022/09/23 04:26:09;;;;;;;;;;;;;;;9.57;81.06;101326.16;1736259;82;25482;-60
2022/09/23 04:28:36;;;;;;;;;;;;;;;9.51;81.73;101331.50;1736676;82;26445;-61
2022/09/23 04:31:04;;;;;;;;;;;;;;;9.47;81.77;101332.69;1741835;81;25791;-60
2022/09/23 04:33:31;;;;;;;;;;;;;;;9.45;82.57;101331.47;1736922;80;28155;-60
2022/09/23 04:35:58;;;;;;;;;;;;;;;9.43;81.82;101331.22;1731555;82;25713;-60
2022/09/23 04:38:25;;;;;;;;;;;;;;;9.46;82.65;101327.81;1732780;81;25735;-59
2022/09/23 04:40:51;;;;;;;;;;;;;;;9.40;82.89;101326.44;1731651;82;25878;-60
2022/09/23 04:43:22;;;;;;;;;;;;;;;9.36;82.88;101330.34;1731770;83;25656;-61
2022/09/23 04:45:47;;;;;;;;;;;;;;;9.34;83.00;101337.66;1731826;82;28103;-61
2022/09/23 04:48:14;;;;;;;;;;;;;;;9.36;83.57;101340.22;1702086;82;25732;-62
2022/09/23 04:50:41;;;;;;;;;;;;;;;9.37;83.80;101341.93;1731643;82;25743;-61
2022/09/23 04:53:07;;;;;;;;;;;;;;;9.36;84.00;101345.58;1731586;82;25792;-60
2022/09/23 04:55:33;;;;;;;;;;;;;;;9.37;83.67;101338.75;1731757;82;25510;-61
2022/09/23 04:58:00;;;;;;;;;;;;;;;9.42;83.87;101338.91;1737886;82;27461;-61
2022/09/23 05:00:27;;;;;;;;;;;;;;;9.43;83.65;101339.28;1740904;82;26429;-61
2022/09/23 05:02:54;;;;;;;;;;;;;;;9.42;83.62;101338.91;1731565;82;25701;-60
2022/09/23 05:05:22;;;;;;;;;;;;;;;9.39;83.24;101342.68;1731837;82;26586;-60
2022/09/23 05:07:50;;;;;;;;;;;;;;;9.40;83.68;101350.61;1733276;82;26178;-60
2022/09/23 05:10:16;;;;;;;;;;;;;;;9.39;84.20;101350.73;1741277;82;28271;-60
2022/09/23 05:12:43;;;;;;;;;;;;;;;9.40;83.71;101348.42;1741380;82;26135;-60
2022/09/23 05:15:09;;;;;;;;;;;;;;;9.42;83.88;101345.62;1740723;82;25676;-61
2022/09/23 05:17:36;;;;;;;;;;;;;;;9.40;84.09;101349.27;1741176;82;26941;-60
2022/09/23 05:20:04;;;;;;;;;;;;;;;9.39;83.92;101341.34;1741136;82;25804;-61
2022/09/23 05:22:31;;;;;;;;;;;;;;;9.40;84.02;101349.27;1741060;82;28877;-60
2022/09/23 05:24:59;;;;;;;;;;;;;;;9.43;84.00;101352.70;1740746;82;25748;-60
2022/09/23 05:27:25;;;;;;;;;;;;;;;9.46;83.71;101341.75;1741309;82;25798;-61
2022/09/23 05:29:52;;;;;;;;;;;;;;;9.46;83.59;101339.90;1742067;81;26112;-60
2022/09/23 05:32:19;;;;;;;;;;;;;;;9.46;83.63;101345.27;1742737;81;26418;-60
2022/09/23 05:34:45;;;;;;;;;;;;;;;9.49;83.34;101350.89;1742144;81;28247;-61
2022/09/23 05:37:12;;;;;;;;;;;;;;;9.47;83.40;101354.17;1731478;82;25804;-61
2022/09/23 05:39:38;;;;;;;;;;;;;;;9.53;83.14;101353.23;1754949;80;25750;-61
2022/09/23 05:42:06;;;;;;;;;;;;;;;9.50;82.78;101352.11;1758342;80;25785;-61
2022/09/23 05:44:33;;;;;;;;;;;;;;;9.54;82.70;101354.95;1731311;82;25860;-60
2022/09/23 05:46:59;;;;;;;;;;;;;;;9.62;82.55;101346.80;1731474;83;27457;-60
2022/09/23 05:49:25;;;;;;;;;;;;;;;9.64;82.21;101351.58;1731169;83;25823;-61
2022/09/23 05:51:52;;;;;;;;;;;;;;;9.68;82.24;101357.95;1731486;82;25858;-60
2022/09/23 05:54:19;;;;;;;;;;;;;;;9.72;81.82;101359.91;1731606;82;27128;-59
2022/09/23 05:56:45;;;;;;;;;;;;;;;9.73;81.90;101352.22;1738854;82;25744;-61
2022/09/23 05:59:12;;;;;;;;;;;;;;;9.81;81.87;101351.66;1710304;82;27464;-61
2022/09/23 06:01:38;;;;;;;;;;;;;;;9.86;81.09;101357.02;1736450;82;25780;-61
2022/09/23 06:04:07;;;;;;;;;;;;;;;9.92;81.44;101359.73;1736778;81;25727;-61
2022/09/23 06:06:36;;;;;;;;;;;;;;;10.03;81.12;101355.73;1741268;82;26920;-60
2022/09/23 06:09:04;;;;;;;;;;;;;;;10.11;80.65;101353.81;1742355;82;25810;-60
2022/09/23 06:11:32;;;;;;;;;;;;;;;10.17;80.37;101353.83;1741509;82;28134;-61
2022/09/23 06:14:00;;;;;;;;;;;;;;;10.25;80.40;101358.58;1735013;82;25963;-60
2022/09/23 06:16:30;;;;;;;;;;;;;;;10.32;80.34;101355.31;1731187;82;26604;-61
2022/09/23 06:18:59;;;;;;;;;;;;;;;10.39;79.32;101354.84;1731379;82;25808;-60
2022/09/23 06:21:25;;;;;;;;;;;;;;;10.47;79.51;101357.78;1731387;83;25813;-60
2022/09/23 06:23:51;;;;;;;;;;;;;;;10.45;78.99;101354.35;1738540;81;27414;-60
2022/09/23 06:26:18;;;;;;;;;;;;;;;10.54;79.25;101357.66;1740789;82;25715;-61
2022/09/23 06:28:44;;;;;;;;;;;;;;;10.68;79.35;101371.36;1740995;82;25657;-60
2022/09/23 06:31:14;;;;;;;;;;;;;;;10.81;79.23;101361.81;1733427;81;25707;-60
2022/09/23 06:33:42;;;;;;;;;;;;;;;10.86;78.39;101363.67;1731979;82;25779;-59
2022/09/23 06:36:10;;;;;;;;;;;;;;;10.86;77.33;101360.10;1736199;81;27497;-60
2022/09/23 06:38:43;;;;;;;;;;;;;;;10.85;77.26;101363.30;1743394;81;25839;-60
2022/09/23 06:41:10;;;;;;;;;;;;;;;10.90;77.45;101364.27;1745759;82;25692;-59
2022/09/23 06:43:37;;;;;;;;;;;;;;;10.96;76.99;101353.88;1737327;82;25748;-59
2022/09/23 06:46:06;;;;;;;;;;;;;;;11.04;76.35;101353.73;1734791;82;25933;-60
2022/09/23 06:48:35;;;;;;;;;;;;;;;11.13;76.58;101357.02;1720749;82;28244;-60
2022/09/23 06:51:06;;;;;;;;;;;;;;;11.30;77.07;101362.86;1731399;82;25801;-60
2022/09/23 06:53:33;;;;;;;;;;;;;;;11.45;77.02;101363.43;1740075;82;25779;-59
2022/09/23 06:56:02;;;;;;;;;;;;;;;11.58;76.73;101364.98;1741130;82;26673;-60
2022/09/23 06:58:30;;;;;;;;;;;;;;;11.77;76.06;101362.56;1740480;82;25747;-60
2022/09/23 07:01:04;;;;;;;;;;;;;;;11.85;75.62;101364.98;1741141;80;27451;-60
2022/09/23 07:03:34;;;;;;;;;;;;;;;11.87;75.31;101359.45;1748468;80;25509;-60
2022/09/23 07:05:59;;;;;;;;;;;;;;;11.94;75.20;101365.19;1741895;82;25480;-60
2022/09/23 07:08:27;;;;;;;;;;;;;;;11.95;75.51;101361.51;1746368;81;26867;-60
2022/09/23 07:10:56;;;;;;;;;;;;;;;12.00;75.45;101363.34;1732449;82;25772;-59
2022/09/23 07:13:23;;;;;;;;;;;;;;;11.96;75.40;101368.11;1732295;82;27433;-59
2022/09/23 07:15:52;;;;;;;;;;;;;;;11.91;74.88;101367.66;1731669;82;25629;-60
2022/09/23 07:18:19;;;;;;;;;;;;;;;11.96;75.61;101374.00;1731901;82;25799;-59
2022/09/23 07:20:45;;;;;;;;;;;;;;;12.09;75.78;101367.94;1731601;81;25833;-59
2022/09/23 07:23:12;;;;;;;;;;;;;;;12.15;74.51;101370.10;1731495;82;25787;-59
2022/09/23 07:25:38;;;;;;;;;;;;;;;12.25;74.47;101365.27;1731764;82;27469;-60
2022/09/23 07:28:06;;;;;;;;;;;;;;;12.32;73.69;101368.66;1736522;82;25687;-60
2022/09/23 07:30:37;;;;;;;;;;;;;;;12.40;73.58;101365.78;1747493;81;26104;-61
2022/09/23 07:33:04;;;;;;;;;;;;;;;12.57;73.35;101365.67;1731061;80;26418;-60
2022/09/23 07:35:31;;;;;;;;;;;;;;;12.78;73.26;101366.97;1731523;83;27266;-60
2022/09/23 07:37:58;;;;;;;;;;;;;;;12.85;70.74;101365.42;1732961;81;27528;-60
2022/09/23 07:40:24;;;;;;;;;;;;;;;12.87;70.49;101366.15;1760816;81;27203;-60
2022/09/23 07:42:52;;;;;;;;;;;;;;;13.08;71.27;101371.47;1731480;82;25764;-60
2022/09/23 07:45:20;;;;;;;;;;;;;;;12.89;66.70;101369.58;1731808;82;25745;-59
2022/09/23 07:47:47;;;;;;;;;;;;;;;12.83;67.84;101367.40;1732231;82;25732;-60
2022/09/23 07:50:14;;;;;;;;;;;;;;;12.71;67.84;101359.90;1741604;82;27442;-62
2022/09/23 07:52:41;;;;;;;;;;;;;;;12.81;69.05;101364.00;1742859;82;25696;-61
2022/09/23 07:55:08;;;;;;;;;;;;;;;12.86;67.89;101359.55;1742865;82;25723;-60
2022/09/23 07:57:34;;;;;;;;;;;;;;;13.07;68.70;101356.77;1740061;82;25936;-60
2022/09/23 08:00:02;;;;;;;;;;;;;;;13.11;67.49;101355.00;1732380;82;25808;-61
2022/09/23 08:02:31;;;;;;;;;;;;;;;13.17;66.53;101352.72;1730777;82;27819;-60
2022/09/23 08:04:58;;;;;;;;;;;;;;;13.38;67.04;101350.78;1733200;82;25859;-60
2022/09/23 08:07:25;;;;;;;;;;;;;;;13.61;65.51;101345.13;1731479;83;25486;-60
2022/09/23 08:09:51;;;;;;;;;;;;;;;13.67;65.60;101341.00;1731323;82;25823;-60
2022/09/23 08:12:18;;;;;;;;;;;;;;;13.71;65.35;101341.92;1731384;82;25690;-60
2022/09/23 08:14:44;;;;;;;;;;;;;;;13.73;65.39;101338.59;1731386;82;27376;-60
2022/09/23 08:17:12;;;;;;;;;;;;;;;13.73;66.49;101335.01;1731117;82;25735;-60
2022/09/23 08:19:39;;;;;;;;;;;;;;;13.78;66.61;101336.29;1735880;81;26463;-60
2022/09/23 08:22:05;;;;;;;;;;;;;;;13.77;66.68;101337.28;1732288;82;25834;-59
2022/09/23 08:24:32;;;;;;;;;;;;;;;13.84;66.12;101336.73;1731499;82;26033;-59
2022/09/23 08:26:58;;;;;;;;;;;;;;;13.96;65.55;101339.61;1731384;83;27432;-60
2022/09/23 08:29:25;;;;;;;;;;;;;;;14.17;65.09;101336.72;1732406;81;25736;-60
2022/09/23 08:31:53;;;;;;;;;;;;;;;14.30;63.17;101338.27;1731525;82;26037;-60
2022/09/23 08:34:21;;;;;;;;;;;;;;;14.16;63.96;101339.11;1728806;82;25774;-59
2022/09/23 08:36:48;;;;;;;;;;;;;;;13.97;63.72;101341.33;1728623;83;25798;-61
2022/09/23 08:39:17;;;;;;;;;;;;;;;13.85;64.07;101342.50;1700047;83;27430;-60
2022/09/23 08:41:50;;;;;;;;;;;;;;;13.70;64.32;101336.66;1683586;83;25768;-60
2022/09/23 08:44:49;;;;;;;;;;;;;;;13.60;64.45;101332.59;1685553;83;25961;-61
2022/09/23 08:47:22;;;;;;;;;;;;;;;13.52;65.00;101333.80;1686780;83;25841;-60
2022/09/23 08:50:09;;;;;;;;;;;;;;;13.58;64.77;101330.55;1685762;83;25774;-60
2022/09/23 08:52:46;;;;;;;;;;;;;;;13.89;65.11;101322.27;1686472;83;27885;-60
2022/09/23 08:55:13;;;;;;;;;;;;;;;14.40;63.33;101325.05;1700859;83;26001;-60
2022/09/23 08:57:46;;;;;;;;;;;;;;;14.77;63.42;101324.73;1700763;83;25689;-60
2022/09/23 09:00:17;;;;;;;;;;;;;;;14.70;61.34;101321.77;1715119;83;25767;-60
2022/09/23 09:02:43;;;;;;;;;;;;;;;14.77;61.43;101324.73;1723836;82;25707;-61
2022/09/23 09:05:11;;;;;;;;;;;;;;;14.71;59.63;101317.19;1706826;82;27374;-61
2022/09/23 09:07:39;;;;;;;;;;;;;;;14.80;59.82;101317.64;1700909;83;25769;-60
2022/09/23 09:10:21;;;;;;;;;;;;;;;15.03;60.11;101311.31;1728578;82;25777;-62
2022/09/23 09:12:59;;;;;;;;;;;;;;;14.99;58.71;101309.92;1719637;82;25921;-60
2022/09/23 09:15:27;;;;;;;;;;;;;;;14.79;59.12;101313.73;1684924;83;25879;-60
2022/09/23 09:18:06;;;;;;;;;;;;;;;14.70;59.91;101308.73;1684322;83;27486;-61
2022/09/23 09:20:58;;;;;;;;;;;;;;;14.63;60.39;101312.51;1687240;83;25902;-60
2022/09/23 09:23:44;;;;;;;;;;;;;;;14.65;60.42;101305.09;1692861;82;25793;-60
2022/09/23 09:26:16;;;;;;;;;;;;;;;14.73;59.20;101311.13;1697433;83;26387;-61
2022/09/23 09:28:46;;;;;;;;;;;;;;;14.95;59.65;101302.25;1702216;84;25919;-60
2022/09/23 09:31:22;;;;;;;;;;;;;;;14.87;56.69;101307.06;1688166;83;27411;-59
2022/09/23 09:33:56;;;;;;;;;;;;;;;14.93;57.65;101310.51;1703295;82;25736;-60
2022/09/23 09:36:45;;;;;;;;;;;;;;;14.91;57.98;101312.54;1732576;82;25796;-60
2022/09/23 09:39:13;;;;;;;;;;;;;;;14.95;57.73;101307.16;1735758;82;26674;-60
2022/09/23 09:41:43;;;;;;;;;;;;;;;15.46;55.06;101314.81;1735699;82;27345;-60
2022/09/23 09:44:20;;;;;;;;;;;;;;;15.17;54.36;101322.64;1736148;82;27562;-60
2022/09/23 09:47:14;;;;;;;;;;;;;;;15.06;54.32;101317.43;1732740;82;25763;-60
2022/09/23 09:49:59;;;;;;;;;;;;;;;15.07;54.83;101309.66;1731795;82;25711;-60
2022/09/23 09:52:30;;;;;;;;;;;;;;;15.05;55.23;101313.88;1733462;82;27111;-59
2022/09/23 09:55:16;;;;;;;;;;;;;;;14.88;55.82;101310.12;1734822;82;25878;-61
2022/09/23 09:57:46;;;;;;;;;;;;;;;14.74;56.42;101317.41;1731327;81;27444;-62
2022/09/23 10:00:29;;;;;;;;;;;;;;;14.70;57.54;101319.57;1729501;82;25780;-61
2022/09/23 10:03:01;;;;;;;;;;;;;;;14.60;57.52;101322.79;1734230;81;25747;-60
2022/09/23 10:05:47;;;;;;;;;;;;;;;14.43;57.75;101323.92;1729382;82;25932;-62
2022/09/23 10:08:25;;;;;;;;;;;;;;;14.54;58.71;101321.52;1707850;82;25750;-60
2022/09/23 10:11:16;;;;;;;;;;;;;;;14.65;57.77;101320.47;1728199;82;27647;-59
2022/09/23 10:14:08;;;;;;;;;;;;;;;14.55;58.01;101313.24;1731622;82;25711;-60
2022/09/23 10:16:34;;;;;;;;;;;;;;;14.57;57.85;101314.44;1731895;82;25712;-60
2022/09/23 10:19:03;;;;;;;;;;;;;;;14.58;58.55;101316.14;1730983;82;25781;-61
2022/09/23 10:21:35;;;;;;;;;;;;;;;14.53;58.39;101317.11;1723716;82;25708;-60
2022/09/23 10:24:05;;;;;;;;;;;;;;;14.46;58.62;101318.20;1708436;83;27504;-60
2022/09/23 10:26:36;;;;;;;;;;;;;;;14.46;58.32;101317.36;1723093;81;25836;-61
2022/09/23 10:29:05;;;;;;;;;;;;;;;15.60;57.05;101313.38;1737314;80;25731;-61
2022/09/23 10:31:34;;;;;;;;;;;;;;;17.26;54.17;101307.04;1716033;82;26308;-60
2022/09/23 10:34:04;;;;;;;;;;;;;;;18.17;53.13;101299.73;1732678;81;25727;-61
2022/09/23 10:36:32;;;;;;;;;;;;;;;19.05;49.20;101301.11;1693337;83;27646;-61
2022/09/23 10:47:46;;;;;;;;;;;;;;;18.12;47.17;101296.16;1680721;85;25820;-60
2022/09/23 10:50:26;;;;;;;;;;;;;;;18.12;49.11;101291.22;1681019;84;28423;-61
2022/09/23 10:53:18;;;;;;;;;;;;;;;19.05;44.71;101280.13;1680777;84;25424;-60
2022/09/23 10:56:09;;;;;;;;;;;;;;;20.23;43.37;101279.84;1681059;84;25741;-60
2022/09/23 10:59:03;;;;;;;;;;;;;;;20.81;40.00;101270.97;1659491;84;25953;-61
2022/09/23 11:01:36;;;;;;;;;;;;;;;20.22;41.67;101274.57;1679964;85;25757;-61
2022/09/23 11:04:39;;;;;;;;;;;;;;;19.52;42.89;101279.65;1679833;85;27574;-61
2022/09/23 11:07:28;;;;;;;;;;;;;;;19.01;45.05;101286.98;1679489;85;25725;-62
2022/09/23 11:10:29;;;;;;;;;;;;;;;18.86;44.52;101281.94;1666997;85;26577;-61
2022/09/23 11:13:19;;;;;;;;;;;;;;;19.04;44.39;101273.50;1654082;86;25828;-61
2022/09/23 11:16:07;;;;;;;;;;;;;;;19.81;43.40;101271.19;1653720;86;25737;-59
2022/09/23 11:18:52;;;;;;;;;;;;;;;20.31;40.78;101263.87;1674267;84;27079;-60
2022/09/23 11:21:31;;;;;;;;;;;;;;;20.53;41.42;101255.24;1679974;84;25420;-60
2022/09/23 11:24:21;;;;;;;;;;;;;;;20.71;43.49;101254.81;1680016;84;25749;-61
2022/09/23 11:27:07;;;;;;;;;;;;;;;19.90;40.40;101254.25;1679560;85;25803;-60
2022/09/23 11:29:56;;;;;;;;;;;;;;;19.69;41.35;101248.95;1678629;83;25738;-61
2022/09/23 11:33:02;;;;;;;;;;;;;;;19.78;42.20;101247.00;1678748;81;27534;-60
2022/09/23 11:35:46;;;;;;;;;;;;;;;20.18;42.32;101250.88;1706419;82;26422;-61
2022/09/23 11:38:24;;;;;;;;;;;;;;;20.03;40.90;101245.41;1729656;82;25717;-59
2022/09/23 11:40:53;;;;;;;;;;;;;;;20.01;41.38;101239.28;1716308;82;25770;-61
2022/09/23 11:43:27;;;;;;;;;;;;;;;20.04;42.05;101238.92;1709481;82;25769;-61
2022/09/23 11:45:57;;;;;;;;;;;;;;;20.08;41.31;101244.84;1700978;83;27411;-59
2022/09/23 11:48:43;;;;;;;;;;;;;;;20.18;41.74;101238.59;1700973;83;25875;-59
2022/09/23 11:51:12;;;;;;;;;;;;;;;20.32;40.73;101229.53;1700921;83;25700;-60
2022/09/23 11:53:48;;;;;;;;;;;;;;;20.15;41.36;101243.05;1715483;82;25771;-60
2022/09/23 11:56:22;;;;;;;;;;;;;;;19.88;42.25;101238.56;1731009;82;25647;-60
2022/09/23 11:59:02;;;;;;;;;;;;;;;19.57;42.11;101233.20;1709949;82;28097;-60
2022/09/23 12:01:34;;;;;;;;;;;;;;;18.93;42.06;101237.44;1645686;85;25864;-60
2022/09/23 12:04:22;;;;;;;;;;;;;;;18.55;43.38;101235.08;1673517;85;25772;-60
2022/09/23 12:07:01;;;;;;;;;;;;;;;18.72;43.77;101233.95;1674289;84;25770;-60
2022/09/23 12:09:31;;;;;;;;;;;;;;;18.68;44.46;101235.36;1709410;83;25633;-60
2022/09/23 12:12:07;;;;;;;;;;;;;;;18.64;44.44;101240.82;1712872;83;27498;-61
2022/09/23 12:14:56;;;;;;;;;;;;;;;18.62;43.77;101238.78;1702107;84;25755;-60
2022/09/23 12:17:35;;;;;;;;;;;;;;;18.39;42.74;101235.49;1702290;83;25778;-59
2022/09/23 12:20:14;;;;;;;;;;;;;;;18.22;43.71;101229.77;1702325;83;25833;-60
2022/09/23 12:23:02;;;;;;;;;;;;;;;18.42;44.62;101222.86;1702080;83;25803;-60
2022/09/23 12:25:35;;;;;;;;;;;;;;;18.89;44.86;101222.45;1692311;83;28261;-60
2022/09/23 12:28:08;;;;;;;;;;;;;;;19.75;41.96;101220.07;1702216;84;25716;-60
2022/09/23 12:30:36;;;;;;;;;;;;;;;19.84;41.34;101217.59;1691404;82;25440;-61
2022/09/23 12:33:10;;;;;;;;;;;;;;;19.96;40.82;101219.36;1684540;83;25873;-60
2022/09/23 12:35:40;;;;;;;;;;;;;;;19.90;41.93;101217.92;1710462;81;25504;-60
2022/09/23 12:38:25;;;;;;;;;;;;;;;19.98;41.77;101215.94;1745127;81;29688;-61
2022/09/23 12:40:53;;;;;;;;;;;;;;;20.21;41.75;101210.05;1760957;81;25694;-60
2022/09/23 12:43:34;;;;;;;;;;;;;;;20.69;42.23;101205.48;1763260;80;25730;-60
2022/09/23 12:46:28;;;;;;;;;;;;;;;21.25;39.66;101198.84;1763326;81;25992;-60
2022/09/23 12:48:59;;;;;;;;;;;;;;;21.61;39.17;101194.84;1761674;81;25946;-61
2022/09/23 12:51:34;;;;;;;;;;;;;;;21.73;37.98;101197.36;1763402;81;26896;-61
2022/09/23 12:54:22;;;;;;;;;;;;;;;21.31;39.18;101189.51;1745076;81;26794;-60
2022/09/23 12:56:55;;;;;;;;;;;;;;;20.82;39.95;101194.75;1768901;80;25718;-60
2022/09/23 12:59:30;;;;;;;;;;;;;;;20.11;38.82;101191.23;1769026;81;25787;-62
2022/09/23 13:01:57;;;;;;;;;;;;;;;19.11;40.28;101200.84;1769289;81;25887;-61
2022/09/23 13:07:24;;;;;;;;;;;;;;;18.09;43.03;101197.66;1769432;80;25749;-61
2022/09/23 13:09:54;;;;;;;;;;;;;;;17.79;43.94;101194.14;1769256;80;25865;-60
2022/09/23 13:12:30;;;;;;;;;;;;;;;17.74;44.48;101195.16;1769442;81;26613;-60
2022/09/23 13:15:02;;;;;;;;;;;;;;;17.73;44.74;101198.06;1769210;81;25726;-61
2022/09/23 13:17:31;;;;;;;;;;;;;;;17.56;45.53;101192.66;1769186;81;27432;-61
2022/09/23 13:20:21;;;;;;;;;;;;;;;17.39;45.61;101189.61;1769061;80;26067;-61
2022/09/23 13:22:52;;;;;;;;;;;;;;;17.26;46.08;101191.48;1769305;80;25780;-61
2022/09/23 13:25:27;;;;;;;;;;;;;;;17.13;46.75;101189.25;1769124;81;25802;-61